Hollister, Florida
Current Conditions -  °F | °C
As of 4:15 PM on Monday 24 Nov 2014 (Local Time) from K28J Reporting Station
Clear Clear  
Wind Chill: 84°   Ceiling: Unl
Heat Index: 90°   Visibility: 10mi
Dew Point: 72°   Wind: 9mph
Humidity: 66%   Direction: 240°WSW
Pressure: 29.9"   Gusts: NA
Location:  29.62°N, 81.81°W
Report Text: K28J 242115Z AUTO 24008KT 10SM CLR 29/22 A2990 RMK AO2 LTG DSNT N
Loading
Personal Weather Stations






























Interactive Weather Map New forecast layout! Learn more

10-Day Weather Forecast

Advertisements
Track Severe Weather on mobile